Norbank — PGIS — position and weather

sailwx.info

Track history (hours):
 
Tides and Currents Weather Stations Pressure Air Temp Water Temp Dewpoint Dewpoint Depression Visibility Wind Speed Wind Dir Waves Ship Positions

Norbank

Operator: P & O Ferries

Last reported at 2017-Dec-11 16:06 UTC. Time now 2017-Dec-14 17:19 UTC.
Position N 53°22' W 005°55'.

Length 167 m; draft 5.9 m.

Type: Ship (hazmat cat A). MMSI: 246213000.

Date/timePositionNaut miles runAvg speedWind from/ knotsBaromVisibWave heightAir tempDewpointWater temp
2017-Dec-11 16:06N 53°22' W 005°55'219.6
2017-Dec-11 15:59N 53°21' W 005°59'714.6
2017-Dec-11 15:30N 53°21' W 006°10'2 0.4
2017-Dec-11 11:32N 53°21' W 006°13'0 0.0
2017-Dec-11 11:26N 53°21' W 006°13'0 0.3
2017-Dec-11 10:54N 53°21' W 006°13'2 5.0
2017-Dec-11 10:30N 53°21' W 006°10'815.3
2017-Dec-11 09:58N 53°23' W 005°56'7815.7
2017-Dec-11 04:59N 53°34' W 003°47'817.0
2017-Dec-11 04:30N 53°34' W 003°33'816.7
2017-Dec-11 04:00N 53°32' W 003°19'816.6
2017-Dec-11 03:30N 53°30' W 003°06'4 7.8
2017-Dec-11 03:00N 53°27' W 003°01'0 0.9
2017-Dec-11 02:30N 53°27' W 003°01'0 0.0
2017-Dec-11 01:59N 53°27' W 003°01'0 0.0
2017-Dec-11 01:30N 53°27' W 003°01'0 0.0
2017-Dec-11 00:55N 53°27' W 003°01'0 0.0
2017-Dec-11 00:28N 53°27' W 003°01'0 0.0
2017-Dec-10 23:58N 53°27' W 003°01'0 0.0
2017-Dec-10 23:30N 53°27' W 003°01'0 0.8
2017-Dec-10 22:59N 53°27' W 003°01'0 0.3
2017-Dec-10 22:30N 53°27' W 003°01'611.6
2017-Dec-10 22:00N 53°31' W 003°07'815.9
2017-Dec-10 21:30N 53°31' W 003°21'816.7
2017-Dec-10 21:00N 53°31' W 003°35'816.5
2017-Dec-10 20:30N 53°32' W 003°49'816.7
2017-Dec-10 20:00N 53°33' W 004°03'6617.2
2017-Dec-10 16:09N 53°23' W 005°53'318.4
2017-Dec-10 15:59N 53°22' W 005°57'814.5
2017-Dec-10 15:26N 53°21' W 006°11'1 2.5
2017-Dec-10 14:53N 53°21' W 006°13'0 0.0
2017-Dec-10 14:20N 53°21' W 006°13'0 0.0
2017-Dec-10 14:00N 53°21' W 006°13'0 0.0
2017-Dec-10 13:28N 53°21' W 006°13'0 0.0
2017-Dec-10 12:56N 53°21' W 006°13'0 0.0
2017-Dec-10 12:28N 53°21' W 006°13'0 0.0
2017-Dec-10 11:54N 53°21' W 006°13'0 0.0
2017-Dec-10 11:30N 53°21' W 006°13'0 0.0
2017-Dec-10 10:51N 53°21' W 006°13'0 0.0
2017-Dec-10 10:30N 53°21' W 006°13'0 0.0
2017-Dec-10 10:00N 53°21' W 006°13'0 0.0
2017-Dec-10 09:28N 53°21' W 006°13'0 0.0
2017-Dec-10 08:59N 53°21' W 006°13'0 0.0
2017-Dec-10 08:30N 53°21' W 006°13'0 0.0
2017-Dec-10 08:00N 53°21' W 006°13'0 0.0
2017-Dec-10 06:56N 53°21' W 006°13'0 0.0
2017-Dec-10 06:27N 53°21' W 006°13'0 0.0
2017-Dec-10 06:00N 53°21' W 006°13'0 0.0
2017-Dec-10 05:30N 53°21' W 006°13'0 0.0
2017-Dec-10 05:00N 53°21' W 006°13'0 0.0
2017-Dec-10 04:20N 53°21' W 006°13'0 0.0
2017-Dec-10 04:00N 53°21' W 006°13'0 0.0
2017-Dec-10 03:14N 53°21' W 006°13'0 0.0
2017-Dec-10 03:00N 53°21' W 006°13'0 0.0
2017-Dec-10 02:11N 53°21' W 006°13'0 0.0
2017-Dec-10 00:59N 53°21' W 006°13'0 0.0
2017-Dec-10 00:28N 53°21' W 006°13'0 0.0
2017-Dec-10 00:00N 53°21' W 006°13'0 0.0
2017-Dec-09 23:13N 53°21' W 006°13'0 0.0
2017-Dec-09 22:59N 53°21' W 006°13'0 0.0
2017-Dec-09 22:24N 53°21' W 006°13'0 0.0
2017-Dec-09 22:00N 53°21' W 006°13'0 0.0
2017-Dec-09 21:30N 53°21' W 006°13'0 0.0
2017-Dec-09 21:00N 53°21' W 006°13'0 0.0
2017-Dec-09 20:30N 53°21' W 006°13'0 0.0
2017-Dec-09 20:00N 53°21' W 006°13'0 0.0
2017-Dec-09 19:30N 53°21' W 006°13'0 0.0
2017-Dec-09 18:59N 53°21' W 006°13'0 0.0
2017-Dec-09 18:29N 53°21' W 006°13'0 0.0
2017-Dec-09 18:00N 53°21' W 006°13'0 0.0
2017-Dec-09 17:30N 53°21' W 006°13'0 0.0
2017-Dec-09 16:52N 53°21' W 006°13'0 0.0
2017-Dec-09 16:25N 53°21' W 006°13'0 0.0
2017-Dec-09 16:00N 53°21' W 006°13'0 0.0
2017-Dec-09 15:16N 53°21' W 006°13'0 0.0
2017-Dec-09 14:59N 53°21' W 006°13'0 0.0
2017-Dec-09 14:30N 53°21' W 006°13'0 0.0
2017-Dec-09 13:56N 53°21' W 006°13'0 0.0
2017-Dec-09 13:29N 53°21' W 006°13'0 0.0
2017-Dec-09 12:59N 53°21' W 006°13'0 0.0
2017-Dec-09 12:30N 53°21' W 006°13'0 0.0
2017-Dec-09 12:00N 53°21' W 006°13'0 0.0
2017-Dec-09 11:30N 53°21' W 006°13'0 0.2
2017-Dec-09 11:00N 53°21' W 006°13'2 4.6
2017-Dec-09 10:30N 53°21' W 006°09'814.6
2017-Dec-09 09:59N 53°22' W 005°57'7217.8
2017-Dec-09 05:57N 53°35' W 003°58'1120.2
2017-Dec-09 05:26N 53°34' W 003°40'920.2
2017-Dec-09 05:00N 53°32' W 003°26'1019.3
2017-Dec-09 04:30N 53°32' W 003°10'714.1
2017-Dec-09 04:00N 53°27' W 003°01'0 0.6
2017-Dec-09 03:30N 53°27' W 003°01'0 0.4
2017-Dec-09 02:58N 53°27' W 003°01'0 0.0
2017-Dec-09 02:28N 53°27' W 003°01'0 0.0
2017-Dec-09 01:58N 53°27' W 003°01'0 0.0
2017-Dec-09 01:27N 53°27' W 003°01'0 0.0
2017-Dec-09 01:00N 53°27' W 003°01'0 0.0
2017-Dec-09 00:30N 53°27' W 003°01'0 0.0
2017-Dec-09 00:00N 53°27' W 003°01'0 0.0
2017-Dec-08 23:30N 53°27' W 003°01'0 0.8
2017-Dec-08 22:58N 53°27' W 003°01'0 0.4
2017-Dec-08 22:30N 53°27' W 003°01'612.3
2017-Dec-08 22:00N 53°32' W 003°08'815.7
2017-Dec-08 21:30N 53°31' W 003°21'815.2
2017-Dec-08 21:00N 53°31' W 003°34'715.0
2017-Dec-08 20:31N 53°31' W 003°46'714.6
2017-Dec-08 20:00N 53°32' W 003°58'6916.7
2017-Dec-08 15:51N 53°23' W 005°54'618.6
2017-Dec-08 15:30N 53°20' W 006°04'610.5
2017-Dec-08 14:59N 53°21' W 006°13'0 0.2
2017-Dec-08 13:52N 53°21' W 006°13'0 0.0
2017-Dec-08 13:19N 53°21' W 006°13'0 0.0
2017-Dec-08 12:40N 53°21' W 006°13'0 0.0
2017-Dec-08 10:58N 53°21' W 006°13'2 4.1
2017-Dec-08 10:30N 53°21' W 006°10'815.2
2017-Dec-08 10:00N 53°22' W 005°57'8319.4
2017-Dec-08 05:44N 53°34' W 003°40'521.1
2017-Dec-08 05:30N 53°33' W 003°32'1020.1
2017-Dec-08 05:00N 53°31' W 003°15'816.8
2017-Dec-08 04:30N 53°27' W 003°02'1 1.7
2017-Dec-08 04:00N 53°27' W 003°01'0 0.9
2017-Dec-08 03:30N 53°27' W 003°01'0 0.0
2017-Dec-08 03:00N 53°27' W 003°01'0 0.0
2017-Dec-08 02:30N 53°27' W 003°01'0 0.0
2017-Dec-08 01:59N 53°27' W 003°01'0 0.0
2017-Dec-08 01:26N 53°27' W 003°01'0 0.0
2017-Dec-08 00:56N 53°27' W 003°01'0 0.0
2017-Dec-08 00:28N 53°27' W 003°01'0 0.0
2017-Dec-07 23:58N 53°27' W 003°01'0 0.3
2017-Dec-07 23:25N 53°27' W 003°01'0 0.9
2017-Dec-07 23:00N 53°27' W 003°01'1 1.6
2017-Dec-07 22:30N 53°27' W 003°02'713.7
2017-Dec-07 22:01N 53°31' W 003°11'816.3
2017-Dec-07 21:30N 53°31' W 003°25'816.5
2017-Dec-07 21:01N 53°31' W 003°39'816.1
2017-Dec-07 20:30N 53°32' W 003°53'815.9
2017-Dec-07 20:00N 53°34' W 004°06'6717.1
2017-Dec-07 16:07N 53°22' W 005°56'218.7
2017-Dec-07 16:00N 53°21' W 005°59'713.9
2017-Dec-07 15:30N 53°21' W 006°11'1 1.7
2017-Dec-07 14:41N 53°21' W 006°13'0 0.0
2017-Dec-07 14:29N 53°21' W 006°13'0 0.0
2017-Dec-07 13:47N 53°21' W 006°13'0 0.0
2017-Dec-07 13:19N 53°21' W 006°13'0 0.0
2017-Dec-07 12:31N 53°21' W 006°13'0 0.0
2017-Dec-07 11:49N 53°21' W 006°13'0 0.0
2017-Dec-07 11:06N 53°21' W 006°13'0 0.0
2017-Dec-07 10:58N 53°21' W 006°13'2 4.4
2017-Dec-07 10:29N 53°21' W 006°10'816.0
2017-Dec-07 09:59N 53°23' W 005°56'8219.6
2017-Dec-07 05:50N 53°34' W 003°41'721.0
2017-Dec-07 05:30N 53°33' W 003°29'1019.9
2017-Dec-07 05:00N 53°31' W 003°13'816.6
2017-Dec-07 04:30N 53°27' W 003°01'0 0.4
2017-Dec-07 04:00N 53°27' W 003°01'0 0.8
2017-Dec-07 03:29N 53°27' W 003°01'0 0.0
2017-Dec-07 02:58N 53°27' W 003°01'0 0.0
2017-Dec-07 02:28N 53°27' W 003°01'0 0.0
2017-Dec-07 01:58N 53°27' W 003°01'0 0.0
2017-Dec-07 01:28N 53°27' W 003°01'0 0.0
2017-Dec-07 01:00N 53°27' W 003°01'0 0.0
2017-Dec-07 00:30N 53°27' W 003°01'0 0.0
2017-Dec-07 00:00N 53°27' W 003°01'0 0.0
2017-Dec-06 23:30N 53°27' W 003°01'0 0.8
2017-Dec-06 23:00N 53°27' W 003°01'0 0.4
2017-Dec-06 22:30N 53°27' W 003°01'714.6
2017-Dec-06 22:00N 53°32' W 003°10'918.0
2017-Dec-06 21:30N 53°31' W 003°25'918.5
2017-Dec-06 21:00N 53°31' W 003°41'  
2017-Dec-04 10:27N 53°21' W 006°10'716.0
2017-Dec-04 10:00N 53°22' W 005°58'917.7
2017-Dec-04 09:29N 53°25' W 005°43'7316.8
2017-Dec-04 05:10N 53°34' W 003°42'319.9
2017-Dec-04 05:00N 53°34' W 003°36'1019.8
2017-Dec-04 04:30N 53°32' W 003°20'917.5
2017-Dec-04 04:00N 53°30' W 003°06'4 8.7
2017-Dec-04 03:30N 53°27' W 003°01'0 0.7
2017-Dec-04 03:00N 53°27' W 003°01'0 0.3
2017-Dec-04 02:30N 53°27' W 003°01'0 0.0
2017-Dec-04 02:00N 53°27' W 003°01'0 0.0
2017-Dec-04 01:29N 53°27' W 003°01'0 0.0
2017-Dec-04 00:59N 53°27' W 003°01'0 0.0
2017-Dec-04 00:29N 53°27' W 003°01'0 0.9
2017-Dec-03 23:59N 53°27' W 003°01'0 0.3
2017-Dec-03 23:30N 53°27' W 003°01'715.4
2017-Dec-03 23:01N 53°31' W 003°11'611.5
2017-Dec-03 22:30N 53°31' W 003°21'816.1
2017-Dec-03 22:00N 53°31' W 003°34'917.3
2017-Dec-03 21:30N 53°32' W 003°49'918.0
2017-Dec-03 21:00N 53°33' W 004°04'6713.5
2017-Dec-03 16:02N 53°22' W 005°55'112.3
2017-Dec-03 15:57N 53°22' W 005°56'614.0
2017-Dec-03 15:30N 53°20' W 006°06'4 7.1
2017-Dec-03 14:56N 53°21' W 006°13'0 0.0
2017-Dec-03 14:26N 53°21' W 006°13'0 0.0
2017-Dec-03 13:44N 53°21' W 006°13'0 0.0
2017-Dec-03 11:28N 53°21' W 006°13'0 0.0
2017-Dec-03 09:06N 53°21' W 006°13'0 0.0
2017-Dec-03 08:57N 53°21' W 006°13'0 0.0
2017-Dec-03 05:37N 53°21' W 006°13'0 0.0
2017-Dec-03 04:04N 53°21' W 006°13'0 0.0
2017-Dec-02 23:02N 53°21' W 006°13'0 0.0
2017-Dec-02 22:55N 53°21' W 006°13'0 0.0
2017-Dec-02 22:22N 53°21' W 006°13'0 0.0
2017-Dec-02 20:03N 53°21' W 006°13'0 0.0
2017-Dec-02 19:57N 53°21' W 006°13'0 0.0
2017-Dec-02 19:27N 53°21' W 006°13'0 0.0
2017-Dec-02 18:48N 53°21' W 006°13'0 0.0
2017-Dec-02 18:02N 53°21' W 006°13'0 0.0
2017-Dec-02 17:53N 53°21' W 006°13'0 0.0
2017-Dec-02 17:17N 53°21' W 006°13'0 0.0
2017-Dec-02 12:12N 53°21' W 006°13'0 0.0
2017-Dec-02 11:59N 53°21' W 006°13'0 0.6
2017-Dec-02 11:30N 53°21' W 006°13'510.5
2017-Dec-02 11:00N 53°20' W 006°04'8219.3
2017-Dec-02 06:45N 53°35' W 003°49'518.8
2017-Dec-02 06:30N 53°34' W 003°41'918.8
2017-Dec-02 06:00N 53°33' W 003°25'816.3
2017-Dec-02 05:30N 53°32' W 003°11'713.4
2017-Dec-02 05:00N 53°28' W 003°03'1 2.2
2017-Dec-02 04:30N 53°27' W 003°01'0 0.0
2017-Dec-02 04:00N 53°27' W 003°01'0 0.9
2017-Dec-02 03:30N 53°27' W 003°01'0 0.0
2017-Dec-02 02:58N 53°27' W 003°01'0 0.0
2017-Dec-02 02:28N 53°27' W 003°01'0 0.0
2017-Dec-02 01:58N 53°27' W 003°01'0 0.0
2017-Dec-02 01:28N 53°27' W 003°01'0 0.0
2017-Dec-02 00:58N 53°27' W 003°01'0 0.0
2017-Dec-02 00:27N 53°27' W 003°01'0 0.0
2017-Dec-02 00:00N 53°27' W 003°01'0 0.0
2017-Dec-01 23:30N 53°27' W 003°01'0 0.6
2017-Dec-01 23:01N 53°27' W 003°01'0 0.6
2017-Dec-01 22:30N 53°27' W 003°01'714.5
2017-Dec-01 22:00N 53°32' W 003°10'918.2
2017-Dec-01 21:30N 53°31' W 003°25'816.5
2017-Dec-01 21:00N 53°31' W 003°39'816.9
2017-Dec-01 20:30N 53°32' W 003°53'  
Track history (hours):
 
Tides and Currents Weather Stations Pressure Air Temp Water Temp Dewpoint Dewpoint Depression Visibility Wind Speed Wind Dir Waves Ship Positions

Norbank

Operator: P & O Ferries

Last reported at 2017-Dec-11 16:06 UTC. Time now 2017-Dec-14 17:19 UTC.
Position N 53°22' W 005°55'.

Length 167 m; draft 5.9 m.

Type: Ship (hazmat cat A). MMSI: 246213000.

Date/timePositionNaut miles runAvg speedWind from/ knotsBaromVisibWave heightAir tempDewpointWater temp
2017-Dec-11 16:06N 53°22' W 005°55'219.6
2017-Dec-11 15:59N 53°21' W 005°59'714.6
2017-Dec-11 15:30N 53°21' W 006°10'2 0.4
2017-Dec-11 11:32N 53°21' W 006°13'0 0.0
2017-Dec-11 11:26N 53°21' W 006°13'0 0.3
2017-Dec-11 10:54N 53°21' W 006°13'2 5.0
2017-Dec-11 10:30N 53°21' W 006°10'815.3
2017-Dec-11 09:58N 53°23' W 005°56'7815.7
2017-Dec-11 04:59N 53°34' W 003°47'817.0
2017-Dec-11 04:30N 53°34' W 003°33'816.7
2017-Dec-11 04:00N 53°32' W 003°19'816.6
2017-Dec-11 03:30N 53°30' W 003°06'4 7.8
2017-Dec-11 03:00N 53°27' W 003°01'0 0.9
2017-Dec-11 02:30N 53°27' W 003°01'0 0.0
2017-Dec-11 01:59N 53°27' W 003°01'0 0.0
2017-Dec-11 01:30N 53°27' W 003°01'0 0.0
2017-Dec-11 00:55N 53°27' W 003°01'0 0.0
2017-Dec-11 00:28N 53°27' W 003°01'0 0.0
2017-Dec-10 23:58N 53°27' W 003°01'0 0.0
2017-Dec-10 23:30N 53°27' W 003°01'0 0.8
2017-Dec-10 22:59N 53°27' W 003°01'0 0.3
2017-Dec-10 22:30N 53°27' W 003°01'611.6
2017-Dec-10 22:00N 53°31' W 003°07'815.9
2017-Dec-10 21:30N 53°31' W 003°21'816.7
2017-Dec-10 21:00N 53°31' W 003°35'816.5
2017-Dec-10 20:30N 53°32' W 003°49'816.7
2017-Dec-10 20:00N 53°33' W 004°03'6617.2
2017-Dec-10 16:09N 53°23' W 005°53'318.4
2017-Dec-10 15:59N 53°22' W 005°57'814.5
2017-Dec-10 15:26N 53°21' W 006°11'1 2.5
2017-Dec-10 14:53N 53°21' W 006°13'0 0.0
2017-Dec-10 14:20N 53°21' W 006°13'0 0.0
2017-Dec-10 14:00N 53°21' W 006°13'0 0.0
2017-Dec-10 13:28N 53°21' W 006°13'0 0.0
2017-Dec-10 12:56N 53°21' W 006°13'0 0.0
2017-Dec-10 12:28N 53°21' W 006°13'0 0.0
2017-Dec-10 11:54N 53°21' W 006°13'0 0.0
2017-Dec-10 11:30N 53°21' W 006°13'0 0.0
2017-Dec-10 10:51N 53°21' W 006°13'0 0.0
2017-Dec-10 10:30N 53°21' W 006°13'0 0.0
2017-Dec-10 10:00N 53°21' W 006°13'0 0.0
2017-Dec-10 09:28N 53°21' W 006°13'0 0.0
2017-Dec-10 08:59N 53°21' W 006°13'0 0.0
2017-Dec-10 08:30N 53°21' W 006°13'0 0.0
2017-Dec-10 08:00N 53°21' W 006°13'0 0.0
2017-Dec-10 06:56N 53°21' W 006°13'0 0.0
2017-Dec-10 06:27N 53°21' W 006°13'0 0.0
2017-Dec-10 06:00N 53°21' W 006°13'0 0.0
2017-Dec-10 05:30N 53°21' W 006°13'0 0.0
2017-Dec-10 05:00N 53°21' W 006°13'0 0.0
2017-Dec-10 04:20N 53°21' W 006°13'0 0.0
2017-Dec-10 04:00N 53°21' W 006°13'0 0.0
2017-Dec-10 03:14N 53°21' W 006°13'0 0.0
2017-Dec-10 03:00N 53°21' W 006°13'0 0.0
2017-Dec-10 02:11N 53°21' W 006°13'0 0.0
2017-Dec-10 00:59N 53°21' W 006°13'0 0.0
2017-Dec-10 00:28N 53°21' W 006°13'0 0.0
2017-Dec-10 00:00N 53°21' W 006°13'0 0.0
2017-Dec-09 23:13N 53°21' W 006°13'0 0.0
2017-Dec-09 22:59N 53°21' W 006°13'0 0.0
2017-Dec-09 22:24N 53°21' W 006°13'0 0.0
2017-Dec-09 22:00N 53°21' W 006°13'0 0.0
2017-Dec-09 21:30N 53°21' W 006°13'0 0.0
2017-Dec-09 21:00N 53°21' W 006°13'0 0.0
2017-Dec-09 20:30N 53°21' W 006°13'0 0.0
2017-Dec-09 20:00N 53°21' W 006°13'0 0.0
2017-Dec-09 19:30N 53°21' W 006°13'0 0.0
2017-Dec-09 18:59N 53°21' W 006°13'0 0.0
2017-Dec-09 18:29N 53°21' W 006°13'0 0.0
2017-Dec-09 18:00N 53°21' W 006°13'0 0.0
2017-Dec-09 17:30N 53°21' W 006°13'0 0.0
2017-Dec-09 16:52N 53°21' W 006°13'0 0.0
2017-Dec-09 16:25N 53°21' W 006°13'0 0.0
2017-Dec-09 16:00N 53°21' W 006°13'0 0.0
2017-Dec-09 15:16N 53°21' W 006°13'0 0.0
2017-Dec-09 14:59N 53°21' W 006°13'0 0.0
2017-Dec-09 14:30N 53°21' W 006°13'0 0.0
2017-Dec-09 13:56N 53°21' W 006°13'0 0.0
2017-Dec-09 13:29N 53°21' W 006°13'0 0.0
2017-Dec-09 12:59N 53°21' W 006°13'0 0.0
2017-Dec-09 12:30N 53°21' W 006°13'0 0.0
2017-Dec-09 12:00N 53°21' W 006°13'0 0.0
2017-Dec-09 11:30N 53°21' W 006°13'0 0.2
2017-Dec-09 11:00N 53°21' W 006°13'2 4.6
2017-Dec-09 10:30N 53°21' W 006°09'814.6
2017-Dec-09 09:59N 53°22' W 005°57'7217.8
2017-Dec-09 05:57N 53°35' W 003°58'1120.2
2017-Dec-09 05:26N 53°34' W 003°40'920.2
2017-Dec-09 05:00N 53°32' W 003°26'1019.3
2017-Dec-09 04:30N 53°32' W 003°10'714.1
2017-Dec-09 04:00N 53°27' W 003°01'0 0.6
2017-Dec-09 03:30N 53°27' W 003°01'0 0.4
2017-Dec-09 02:58N 53°27' W 003°01'0 0.0
2017-Dec-09 02:28N 53°27' W 003°01'0 0.0
2017-Dec-09 01:58N 53°27' W 003°01'0 0.0
2017-Dec-09 01:27N 53°27' W 003°01'0 0.0
2017-Dec-09 01:00N 53°27' W 003°01'0 0.0
2017-Dec-09 00:30N 53°27' W 003°01'0 0.0
2017-Dec-09 00:00N 53°27' W 003°01'0 0.0
2017-Dec-08 23:30N 53°27' W 003°01'0 0.8
2017-Dec-08 22:58N 53°27' W 003°01'0 0.4
2017-Dec-08 22:30N 53°27' W 003°01'612.3
2017-Dec-08 22:00N 53°32' W 003°08'815.7
2017-Dec-08 21:30N 53°31' W 003°21'815.2
2017-Dec-08 21:00N 53°31' W 003°34'715.0
2017-Dec-08 20:31N 53°31' W 003°46'714.6
2017-Dec-08 20:00N 53°32' W 003°58'6916.7
2017-Dec-08 15:51N 53°23' W 005°54'618.6
2017-Dec-08 15:30N 53°20' W 006°04'610.5
2017-Dec-08 14:59N 53°21' W 006°13'0 0.2
2017-Dec-08 13:52N 53°21' W 006°13'0 0.0
2017-Dec-08 13:19N 53°21' W 006°13'0 0.0
2017-Dec-08 12:40N 53°21' W 006°13'0 0.0
2017-Dec-08 10:58N 53°21' W 006°13'2 4.1
2017-Dec-08 10:30N 53°21' W 006°10'815.2
2017-Dec-08 10:00N 53°22' W 005°57'8319.4
2017-Dec-08 05:44N 53°34' W 003°40'521.1
2017-Dec-08 05:30N 53°33' W 003°32'1020.1
2017-Dec-08 05:00N 53°31' W 003°15'816.8
2017-Dec-08 04:30N 53°27' W 003°02'1 1.7
2017-Dec-08 04:00N 53°27' W 003°01'0 0.9
2017-Dec-08 03:30N 53°27' W 003°01'0 0.0
2017-Dec-08 03:00N 53°27' W 003°01'0 0.0
2017-Dec-08 02:30N 53°27' W 003°01'0 0.0
2017-Dec-08 01:59N 53°27' W 003°01'0 0.0
2017-Dec-08 01:26N 53°27' W 003°01'0 0.0
2017-Dec-08 00:56N 53°27' W 003°01'0 0.0
2017-Dec-08 00:28N 53°27' W 003°01'0 0.0
2017-Dec-07 23:58N 53°27' W 003°01'0 0.3
2017-Dec-07 23:25N 53°27' W 003°01'0 0.9
2017-Dec-07 23:00N 53°27' W 003°01'1 1.6
2017-Dec-07 22:30N 53°27' W 003°02'713.7
2017-Dec-07 22:01N 53°31' W 003°11'816.3
2017-Dec-07 21:30N 53°31' W 003°25'816.5
2017-Dec-07 21:01N 53°31' W 003°39'816.1
2017-Dec-07 20:30N 53°32' W 003°53'815.9
2017-Dec-07 20:00N 53°34' W 004°06'6717.1
2017-Dec-07 16:07N 53°22' W 005°56'218.7
2017-Dec-07 16:00N 53°21' W 005°59'713.9
2017-Dec-07 15:30N 53°21' W 006°11'1 1.7
2017-Dec-07 14:41N 53°21' W 006°13'0 0.0
2017-Dec-07 14:29N 53°21' W 006°13'0 0.0
2017-Dec-07 13:47N 53°21' W 006°13'0 0.0
2017-Dec-07 13:19N 53°21' W 006°13'0 0.0
2017-Dec-07 12:31N 53°21' W 006°13'0 0.0
2017-Dec-07 11:49N 53°21' W 006°13'0 0.0
2017-Dec-07 11:06N 53°21' W 006°13'0 0.0
2017-Dec-07 10:58N 53°21' W 006°13'2 4.4
2017-Dec-07 10:29N 53°21' W 006°10'816.0
2017-Dec-07 09:59N 53°23' W 005°56'8219.6
2017-Dec-07 05:50N 53°34' W 003°41'721.0
2017-Dec-07 05:30N 53°33' W 003°29'1019.9
2017-Dec-07 05:00N 53°31' W 003°13'816.6
2017-Dec-07 04:30N 53°27' W 003°01'0 0.4
2017-Dec-07 04:00N 53°27' W 003°01'0 0.8
2017-Dec-07 03:29N 53°27' W 003°01'0 0.0
2017-Dec-07 02:58N 53°27' W 003°01'0 0.0
2017-Dec-07 02:28N 53°27' W 003°01'0 0.0
2017-Dec-07 01:58N 53°27' W 003°01'0 0.0
2017-Dec-07 01:28N 53°27' W 003°01'0 0.0
2017-Dec-07 01:00N 53°27' W 003°01'0 0.0
2017-Dec-07 00:30N 53°27' W 003°01'0 0.0
2017-Dec-07 00:00N 53°27' W 003°01'0 0.0
2017-Dec-06 23:30N 53°27' W 003°01'0 0.8
2017-Dec-06 23:00N 53°27' W 003°01'0 0.4
2017-Dec-06 22:30N 53°27' W 003°01'714.6
2017-Dec-06 22:00N 53°32' W 003°10'918.0
2017-Dec-06 21:30N 53°31' W 003°25'918.5
2017-Dec-06 21:00N 53°31' W 003°41'  
2017-Dec-04 10:27N 53°21' W 006°10'716.0
2017-Dec-04 10:00N 53°22' W 005°58'917.7
2017-Dec-04 09:29N 53°25' W 005°43'7316.8
2017-Dec-04 05:10N 53°34' W 003°42'319.9
2017-Dec-04 05:00N 53°34' W 003°36'1019.8
2017-Dec-04 04:30N 53°32' W 003°20'917.5
2017-Dec-04 04:00N 53°30' W 003°06'4 8.7
2017-Dec-04 03:30N 53°27' W 003°01'0 0.7
2017-Dec-04 03:00N 53°27' W 003°01'0 0.3
2017-Dec-04 02:30N 53°27' W 003°01'0 0.0
2017-Dec-04 02:00N 53°27' W 003°01'0 0.0
2017-Dec-04 01:29N 53°27' W 003°01'0 0.0
2017-Dec-04 00:59N 53°27' W 003°01'0 0.0
2017-Dec-04 00:29N 53°27' W 003°01'0 0.9
2017-Dec-03 23:59N 53°27' W 003°01'0 0.3
2017-Dec-03 23:30N 53°27' W 003°01'715.4
2017-Dec-03 23:01N 53°31' W 003°11'611.5
2017-Dec-03 22:30N 53°31' W 003°21'816.1
2017-Dec-03 22:00N 53°31' W 003°34'917.3
2017-Dec-03 21:30N 53°32' W 003°49'918.0
2017-Dec-03 21:00N 53°33' W 004°04'6713.5
2017-Dec-03 16:02N 53°22' W 005°55'112.3
2017-Dec-03 15:57N 53°22' W 005°56'614.0
2017-Dec-03 15:30N 53°20' W 006°06'4 7.1
2017-Dec-03 14:56N 53°21' W 006°13'0 0.0
2017-Dec-03 14:26N 53°21' W 006°13'0 0.0
2017-Dec-03 13:44N 53°21' W 006°13'0 0.0
2017-Dec-03 11:28N 53°21' W 006°13'0 0.0
2017-Dec-03 09:06N 53°21' W 006°13'0 0.0
2017-Dec-03 08:57N 53°21' W 006°13'0 0.0
2017-Dec-03 05:37N 53°21' W 006°13'0 0.0
2017-Dec-03 04:04N 53°21' W 006°13'0 0.0
2017-Dec-02 23:02N 53°21' W 006°13'0 0.0
2017-Dec-02 22:55N 53°21' W 006°13'0 0.0
2017-Dec-02 22:22N 53°21' W 006°13'0 0.0
2017-Dec-02 20:03N 53°21' W 006°13'0 0.0
2017-Dec-02 19:57N 53°21' W 006°13'0 0.0
2017-Dec-02 19:27N 53°21' W 006°13'0 0.0
2017-Dec-02 18:48N 53°21' W 006°13'0 0.0
2017-Dec-02 18:02N 53°21' W 006°13'0 0.0
2017-Dec-02 17:53N 53°21' W 006°13'0 0.0
2017-Dec-02 17:17N 53°21' W 006°13'0 0.0
2017-Dec-02 12:12N 53°21' W 006°13'0 0.0
2017-Dec-02 11:59N 53°21' W 006°13'0 0.6
2017-Dec-02 11:30N 53°21' W 006°13'510.5
2017-Dec-02 11:00N 53°20' W 006°04'8219.3
2017-Dec-02 06:45N 53°35' W 003°49'518.8
2017-Dec-02 06:30N 53°34' W 003°41'918.8
2017-Dec-02 06:00N 53°33' W 003°25'816.3
2017-Dec-02 05:30N 53°32' W 003°11'713.4
2017-Dec-02 05:00N 53°28' W 003°03'1 2.2
2017-Dec-02 04:30N 53°27' W 003°01'0 0.0
2017-Dec-02 04:00N 53°27' W 003°01'0 0.9
2017-Dec-02 03:30N 53°27' W 003°01'0 0.0
2017-Dec-02 02:58N 53°27' W 003°01'0 0.0
2017-Dec-02 02:28N 53°27' W 003°01'0 0.0
2017-Dec-02 01:58N 53°27' W 003°01'0 0.0
2017-Dec-02 01:28N 53°27' W 003°01'0 0.0
2017-Dec-02 00:58N 53°27' W 003°01'0 0.0
2017-Dec-02 00:27N 53°27' W 003°01'0 0.0
2017-Dec-02 00:00N 53°27' W 003°01'0 0.0
2017-Dec-01 23:30N 53°27' W 003°01'0 0.6
2017-Dec-01 23:01N 53°27' W 003°01'0 0.6
2017-Dec-01 22:30N 53°27' W 003°01'714.5
2017-Dec-01 22:00N 53°32' W 003°10'918.2
2017-Dec-01 21:30N 53°31' W 003°25'816.5
2017-Dec-01 21:00N 53°31' W 003°39'816.9
2017-Dec-01 20:30N 53°32' W 003°53'  

Dump ship's entire track history